»·PEaware :: N360BG KPUC-KSLC

N360BG :: KPUC-KSLC

FLIGHT INFORMATION

Flight Status: Arrived
Operator: Privately registered:
United States
More flights under this callsign
Pilot: Brandon G. (13)
Aircraft: BEECH AIRCRAFT A90-E90 KING AIR
(BE9L)
More flights by this aircraft type
Origin: KPUC Carbon Co
United States
Destination: KSLC Salt Lake City Intl
United States
More flights between these airports :: More routes between these airports
Route: SPANE SPANE7
File this flight plan on PilotEdge
Remarks:
Altitude:
(Current/Filed)
18,000ft
Speed:
(Current/Filed)
250kts
Departed: 13-Dec-17 07:05 PM
Arrived: 13-Dec-17 07:41 PM
Distance/Time
Traveled:
89nm/0:35
Distance/Time
To Go:
Arrived

Flight Plot

Page will automatically refresh every two minutes.

Flight plan parsing failed; only flown route is shown


Map Options




Map Legend


Flown Route
Filed Route
Departure Airport
Arrival Airport
Navaid (VOR, NDB)
Fix

Horizontal Profiles

Position Reports

Time Latitude Longitude Heading Altitude Ground
Speed
13-Dec-17 18:54 39.612943 -110.749296 288 5869ft 0kts
13-Dec-17 18:55 39.612943 -110.749296 288 5869ft 0kts
13-Dec-17 18:56 39.612943 -110.749296 288 5869ft 0kts
13-Dec-17 18:57 39.612943 -110.749296 288 5869ft 0kts
13-Dec-17 18:58 39.612943 -110.749296 288 5869ft 0kts
13-Dec-17 18:59 39.612943 -110.749296 288 5869ft 0kts
13-Dec-17 19:00 39.612943 -110.749296 288 5869ft 0kts
13-Dec-17 19:01 39.612943 -110.749296 288 5869ft 0kts
13-Dec-17 19:02 39.612943 -110.749296 288 5869ft 0kts
13-Dec-17 19:03 39.612943 -110.749296 288 5869ft 0kts
13-Dec-17 19:04 39.612943 -110.749296 288 5869ft 0kts
13-Dec-17 19:05 39.612943 -110.749296 288 5869ft 0kts
13-Dec-17 19:06 39.612943 -110.749296 288 5869ft 0kts
13-Dec-17 19:07 39.614691 -110.749552 18 5875ft 22kts
13-Dec-17 19:08 39.620866 -110.746883 17 5913ft 18kts
13-Dec-17 19:09 39.625287 -110.744999 18 5944ft 16kts
13-Dec-17 19:10 39.626288 -110.746085 213 5940ft 15kts
13-Dec-17 19:11 39.600965 -110.755919 200 6530ft 139kts
13-Dec-17 19:12 39.582087 -110.785933 313 8282ft 131kts
13-Dec-17 19:13 39.605733 -110.819170 313 10035ft 127kts
13-Dec-17 19:14 39.629934 -110.852623 313 11502ft 129kts
13-Dec-17 19:15 39.654852 -110.886889 313 12497ft 132kts
13-Dec-17 19:16 39.679790 -110.921223 314 13437ft 130kts
13-Dec-17 19:17 39.704431 -110.955183 314 14333ft 129kts
13-Dec-17 19:18 39.728947 -110.989017 314 15132ft 130kts
13-Dec-17 19:19 39.753334 -111.022762 314 16202ft 127kts
13-Dec-17 19:20 39.777440 -111.056116 315 17158ft 127kts
13-Dec-17 19:21 39.801548 -111.089495 315 17962ft 128kts
13-Dec-17 19:22 39.829171 -111.127723 315 18009ft 158kts
13-Dec-17 19:23 39.859080 -111.169212 315 18155ft 165kts
13-Dec-17 19:24 39.890874 -111.213398 315 18173ft 170kts
13-Dec-17 19:25 39.923261 -111.258476 315 18193ft 172kts
13-Dec-17 19:26 39.955847 -111.303899 315 18214ft 172kts
13-Dec-17 19:27 39.988556 -111.349558 315 18234ft 172kts
13-Dec-17 19:28 40.021220 -111.395223 315 18241ft 173kts
13-Dec-17 19:29 40.053849 -111.440906 315 18241ft 173kts
13-Dec-17 19:30 40.086429 -111.486607 315 18241ft 173kts
13-Dec-17 19:31 40.099954 -111.540768 275 18244ft 186kts
13-Dec-17 19:32 40.127034 -111.596138 306 17622ft 196kts
13-Dec-17 19:33 40.155554 -111.657254 304 16826ft 207kts
13-Dec-17 19:34 40.185673 -111.724371 303 15468ft 220kts
13-Dec-17 19:35 40.216599 -111.793802 303 14092ft 222kts
13-Dec-17 19:36 40.247404 -111.855662 321 13953ft 188kts
13-Dec-17 19:37 40.289001 -111.899424 322 13225ft 200kts
13-Dec-17 19:38 40.343649 -111.913186 351 12249ft 208kts
13-Dec-17 19:39 40.401484 -111.919909 352 11262ft 211kts
13-Dec-17 19:40 40.457873 -111.926674 351 10965ft 194kts
13-Dec-17 19:41 40.515157 -111.933198 352 9805ft 217kts
13-Dec-17 19:42 40.574588 -111.940020 352 8551ft 215kts
13-Dec-17 19:43 40.634314 -111.946871 353 7138ft 218kts
13-Dec-17 19:44 40.692251 -111.953543 353 6192ft 189kts
13-Dec-17 19:45 40.743390 -111.959463 352 5184ft 176kts
13-Dec-17 19:46 40.778117 -111.962084 356 4222ft 93kts
13-Dec-17 19:47 40.782718 -111.958826 266 4221ft 0kts
13-Dec-17 19:48 40.782718 -111.958825 266 4221ft 0kts
13-Dec-17 19:49 40.782718 -111.958825 266 4221ft 0kts
13-Dec-17 19:50 40.782718 -111.958825 266 4221ft 0kts
13-Dec-17 19:51 40.782718 -111.958825 266 4221ft 0kts
13-Dec-17 19:52 40.782718 -111.958825 266 4221ft 0kts
13-Dec-17 19:53 40.782718 -111.958825 266 4221ft 0kts
13-Dec-17 19:54 40.782718 -111.958825 266 4221ft 0kts
13-Dec-17 19:55 40.782718 -111.958825 266 4221ft 0kts
13-Dec-17 19:56 40.782718 -111.958825 266 4221ft 0kts

Navigation Log

Ident Type
Flight plan parsing failed, navigation log unavailable